Time;durP1;ratioP1;P1;durP2;ratioP2;P2;SDS_P1;SDS_P2;PMS_P1;PMS_P2;Temp;Humidity;BMP_temperature;BMP_pressure;BME280_temperature;BME280_humidity;BME280_pressure;Samples;Min_cycle;Max_cycle;Signal;HPM_P1;HPM_P2
2022/08/04 00:00:17;;;;;;;6.20;5.90;;;;;;;22.55;71.86;100973.22;6071318;23;20104;-74
2022/08/04 00:03:01;;;;;;;5.70;5.40;;;;;;;22.49;71.84;100972.00;6112203;23;20018;-74
2022/08/04 00:05:52;;;;;;;5.45;5.25;;;;;;;22.45;72.92;100969.75;6118886;23;20013;-74
2022/08/04 00:08:30;;;;;;;5.70;5.50;;;;;;;22.41;72.10;100960.34;6110661;23;20084;-73
2022/08/04 00:10:59;;;;;;;5.90;5.65;;;;;;;22.12;71.74;100915.91;6093112;23;20612;-74
2022/08/04 00:13:30;;;;;;;5.60;5.30;;;;;;;22.36;72.54;100970.66;6126721;23;20016;-73
2022/08/04 00:16:00;;;;;;;5.72;5.50;;;;;;;22.32;73.10;100956.75;6127679;23;20016;-74
2022/08/04 00:18:44;;;;;;;5.40;5.20;;;;;;;21.68;73.01;100863.13;6120765;23;20019;-74
2022/08/04 00:21:15;;;;;;;6.55;6.25;;;;;;;21.95;73.70;100914.03;6107875;23;20024;-72
2022/08/04 00:23:45;;;;;;;5.60;5.40;;;;;;;21.83;74.51;100905.34;6122598;23;20474;-72
2022/08/04 00:26:32;;;;;;;5.75;5.45;;;;;;;21.84;75.16;100909.72;6085037;23;20013;-72
2022/08/04 00:28:59;;;;;;;6.05;5.75;;;;;;;21.86;76.03;100924.63;6121024;23;20144;-73
2022/08/04 00:31:26;;;;;;;5.35;5.15;;;;;;;21.97;75.91;100950.31;6134502;23;20033;-75
2022/08/04 00:34:14;;;;;;;6.35;6.05;;;;;;;21.94;76.26;100944.41;6106059;23;20024;-72
2022/08/04 00:36:44;;;;;;;5.70;5.40;;;;;;;21.84;75.77;100933.78;6120971;23;20018;-72
2022/08/04 00:39:13;;;;;;;6.53;6.22;;;;;;;21.86;75.79;100937.97;6121662;23;20616;-72
2022/08/04 00:42:10;;;;;;;5.40;5.20;;;;;;;21.38;76.05;100872.22;6112536;23;20013;-72
2022/08/04 00:45:02;;;;;;;5.40;5.20;;;;;;;21.80;76.25;100943.06;6115499;23;20021;-72
2022/08/04 00:48:16;;;;;;;5.50;5.30;;;;;;;21.76;76.81;100931.84;6126055;23;20524;-72
2022/08/04 00:51:17;;;;;;;5.65;5.35;;;;;;;21.74;76.93;100919.63;5998208;23;20022;-72
2022/08/04 00:54:11;;;;;;;5.57;5.28;;;;;;;21.70;77.08;100917.22;5990643;23;20011;-73
2022/08/04 00:56:46;;;;;;;5.80;5.50;;;;;;;21.48;76.52;100878.38;6106323;23;20441;-73
2022/08/04 00:59:12;;;;;;;6.90;6.53;;;;;;;21.67;76.92;100916.72;6110526;23;20492;-73
2022/08/04 01:02:14;;;;;;;5.68;5.38;;;;;;;21.51;77.09;100895.97;6100693;23;20419;-74
2022/08/04 01:05:01;;;;;;;5.68;5.40;;;;;;;21.60;77.09;100911.09;6076766;23;20021;-74
2022/08/04 01:07:56;;;;;;;5.63;5.35;;;;;;;21.56;77.41;100912.38;6103069;23;20027;-73
2022/08/04 01:10:35;;;;;;;5.35;5.15;;;;;;;21.39;77.66;100881.91;6078840;23;20024;-73
2022/08/04 01:13:24;;;;;;;6.43;6.05;;;;;;;21.47;78.27;100919.44;6094110;23;20038;-76
2022/08/04 01:15:51;;;;;;;5.38;5.10;;;;;;;21.44;77.92;100909.03;6122676;23;20025;-73
2022/08/04 01:18:34;;;;;;;6.65;6.25;;;;;;;20.96;78.89;100842.44;6112421;23;20022;-73
2022/08/04 01:21:01;;;;;;;5.55;5.35;;;;;;;21.32;78.47;100916.34;6117696;23;20017;-73
2022/08/04 01:23:36;;;;;;;5.60;5.30;;;;;;;21.29;78.92;100902.47;6097038;23;20021;-73
2022/08/04 01:26:24;;;;;;;6.65;6.35;;;;;;;21.21;79.45;100902.31;6119785;23;20025;-73
2022/08/04 01:29:12;;;;;;;6.63;6.32;;;;;;;21.17;80.14;100903.59;6107747;23;20012;-73
2022/08/04 01:31:47;;;;;;;5.45;5.25;;;;;;;21.12;80.08;100904.03;6093354;23;20588;-74
2022/08/04 01:34:14;;;;;;;;;;;;;;;21.08;80.61;100898.13;6106000;23;20025;-73
2022/08/04 01:36:45;;;;;;;5.50;5.30;;;;;;;21.04;80.89;100896.75;6088899;23;19916;-73
2022/08/04 01:42:21;;;;;;;5.50;5.28;;;;;;;20.63;81.35;100839.25;6020991;23;20055;-72
2022/08/04 01:44:59;;;;;;;5.70;5.45;;;;;;;20.93;82.04;100896.94;6061713;23;20027;-73
2022/08/04 01:47:28;;;;;;;5.70;5.40;;;;;;;20.88;82.19;100896.50;6099542;23;20029;-72
2022/08/04 01:50:04;;;;;;;6.25;5.85;;;;;;;20.84;83.02;100889.75;6111511;23;20062;-72
2022/08/04 01:52:34;;;;;;;5.60;5.30;;;;;;;20.43;83.32;100836.56;6113078;23;20021;-73
2022/08/04 01:55:08;;;;;;;6.50;6.20;;;;;;;20.79;83.62;100890.19;6093721;23;20033;-73
2022/08/04 01:57:43;;;;;;;5.60;5.30;;;;;;;20.66;83.77;100870.97;6119081;23;20096;-72
2022/08/04 02:00:12;;;;;;;6.90;6.60;;;;;;;20.74;84.07;100891.59;6067275;23;20021;-73
2022/08/04 02:02:39;;;;;;;5.43;5.22;;;;;;;20.39;84.41;100834.34;6118887;23;20137;-72
2022/08/04 02:05:10;;;;;;;6.40;6.10;;;;;;;20.23;84.83;100819.75;6084003;23;20036;-72
2022/08/04 02:08:00;;;;;;;5.50;5.30;;;;;;;20.20;85.10;100809.34;6112574;23;20023;-72
2022/08/04 02:10:46;;;;;;;5.40;5.10;;;;;;;20.57;86.23;100875.31;6107536;23;20039;-73
2022/08/04 02:13:26;;;;;;;7.13;6.72;;;;;;;20.20;85.74;100822.66;6108160;23;20021;-72
2022/08/04 02:16:01;;;;;;;5.70;5.50;;;;;;;20.37;85.46;100869.13;6130189;23;20026;-72
2022/08/04 02:18:43;;;;;;;5.68;5.38;;;;;;;20.24;86.45;100869.38;6110866;23;20028;-74
2022/08/04 02:21:13;;;;;;;6.65;6.35;;;;;;;20.14;87.41;100863.19;6114839;23;20035;-73
2022/08/04 02:23:40;;;;;;;5.40;5.20;;;;;;;19.55;88.15;100781.47;6096068;23;20049;-75
2022/08/04 02:26:17;;;;;;;5.40;5.20;;;;;;;19.73;89.19;100827.81;6118751;23;20009;-72
2022/08/04 02:28:57;;;;;;;5.55;5.25;;;;;;;19.95;89.47;100863.19;6114408;23;20548;-73
2022/08/04 02:31:32;;;;;;;6.10;5.60;;;;;;;19.93;90.20;100861.47;6094521;23;20033;-73
2022/08/04 02:33:59;;;;;;;6.47;6.18;;;;;;;19.92;90.59;100874.94;6103993;23;20088;-72
2022/08/04 02:36:33;;;;;;;5.40;5.20;;;;;;;19.92;90.85;100862.47;6085170;23;20010;-73
2022/08/04 02:39:02;;;;;;;5.45;5.25;;;;;;;19.96;90.81;100856.84;6111399;23;20020;-73
2022/08/04 02:41:30;;;;;;;5.50;5.20;;;;;;;19.53;90.89;100784.28;6095437;23;20522;-73
2022/08/04 02:43:59;;;;;;;5.85;5.55;;;;;;;19.46;91.19;100761.81;6087047;23;20418;-73
2022/08/04 02:46:27;;;;;;;6.00;5.70;;;;;;;19.36;90.82;100745.00;6111417;23;20118;-73
2022/08/04 02:48:55;;;;;;;5.53;5.32;;;;;;;20.02;90.94;100843.00;6083743;23;20050;-73
2022/08/04 02:51:24;;;;;;;5.40;5.20;;;;;;;20.03;90.82;100844.69;6127006;23;20035;-73
2022/08/04 02:53:53;;;;;;;5.20;5.00;;;;;;;19.92;90.83;100826.97;6113820;23;20017;-72
2022/08/04 02:56:20;;;;;;;5.43;5.22;;;;;;;19.27;90.98;100720.88;6089474;23;20086;-74
2022/08/04 02:58:51;;;;;;;5.28;5.07;;;;;;;19.67;90.67;100783.88;6089075;23;20649;-73
2022/08/04 03:01:21;;;;;;;5.68;5.38;;;;;;;19.60;90.91;100764.09;6114850;23;20040;-72
2022/08/04 03:03:58;;;;;;;5.35;5.15;;;;;;;19.97;91.69;100826.59;6086262;23;20487;-73
2022/08/04 03:06:37;;;;;;;5.40;5.10;;;;;;;19.95;91.28;100836.53;6087310;23;20018;-73
2022/08/04 03:09:22;;;;;;;6.35;6.05;;;;;;;19.92;91.53;100827.84;6123225;23;20025;-73
2022/08/04 03:12:00;;;;;;;5.28;5.07;;;;;;;19.86;92.28;100824.88;6112234;23;20033;-72
2022/08/04 03:14:45;;;;;;;5.97;5.68;;;;;;;19.79;92.61;100835.25;6128149;23;20092;-72
2022/08/04 03:17:29;;;;;;;6.82;6.53;;;;;;;19.10;93.25;100724.19;6103327;23;20005;-72
2022/08/04 03:20:14;;;;;;;5.75;5.38;;;;;;;19.67;94.07;100829.16;6085155;23;20085;-73
2022/08/04 03:22:57;;;;;;;5.50;5.30;;;;;;;19.62;94.52;100826.03;6116774;23;20362;-73
2022/08/04 03:26:16;;;;;;;5.40;5.15;;;;;;;19.35;95.52;100781.41;6084323;23;20021;-73
2022/08/04 03:29:17;;;;;;;5.50;5.30;;;;;;;18.07;95.91;100573.63;6086034;23;20033;-72
2022/08/04 03:32:16;;;;;;;6.70;6.40;;;;;;;19.26;95.87;100782.22;6119983;23;20596;-73
2022/08/04 03:34:50;;;;;;;5.63;5.40;;;;;;;19.53;95.57;100795.75;6067832;23;20093;-72
2022/08/04 03:37:51;;;;;;;5.80;5.50;;;;;;;19.56;95.44;100793.81;6117748;23;20072;-73
2022/08/04 03:40:32;;;;;;;5.50;5.30;;;;;;;19.59;94.20;100789.06;6098311;23;20081;-72
2022/08/04 03:43:24;;;;;;;6.07;5.78;;;;;;;19.63;93.78;100778.97;6079345;23;20442;-74
2022/08/04 03:46:25;;;;;;;5.32;5.13;;;;;;;19.67;93.99;100781.22;6090215;23;20597;-73
2022/08/04 03:49:16;;;;;;;6.25;5.85;;;;;;;19.71;94.24;100779.16;6120142;23;20029;-73
2022/08/04 03:55:13;;;;;;;5.90;5.50;;;;;;;19.73;94.01;100772.72;6099924;23;20022;-73
2022/08/04 03:57:43;;;;;;;5.20;5.00;;;;;;;19.75;93.14;100774.41;6112150;23;20037;-73
2022/08/04 04:00:30;;;;;;;6.97;6.68;;;;;;;19.51;92.99;100736.50;6069549;23;20375;-73
2022/08/04 04:03:36;;;;;;;5.78;5.47;;;;;;;19.79;92.88;100768.66;6084958;23;20017;-73
2022/08/04 04:06:48;;;;;;;6.60;6.30;;;;;;;19.81;92.65;100772.03;6092581;23;20018;-73
2022/08/04 04:09:22;;;;;;;6.25;5.95;;;;;;;19.78;93.38;100771.47;6105845;23;20033;-72
2022/08/04 04:12:49;;;;;;;5.70;5.30;;;;;;;19.71;95.07;100769.34;6112072;23;20009;-72
2022/08/04 04:15:33;;;;;;;5.65;5.45;;;;;;;19.69;94.88;100770.44;6041202;23;20017;-71
2022/08/04 04:18:05;;;;;;;5.40;5.20;;;;;;;19.90;93.68;100765.84;6084116;23;20043;-71
2022/08/04 04:20:54;;;;;;;5.13;4.93;;;;;;;19.68;92.61;100684.38;6074451;23;20018;-71
2022/08/04 04:23:53;;;;;;;5.30;5.10;;;;;;;20.40;91.10;100740.03;6020445;23;20033;-71
2022/08/04 04:26:41;;;;;;;5.40;5.20;;;;;;;20.91;88.74;100747.66;6058757;23;20065;-71
2022/08/04 04:29:29;;;;;;;6.55;6.25;;;;;;;21.33;85.87;100741.00;6050366;23;20618;-71
2022/08/04 04:32:11;;;;;;;5.57;5.38;;;;;;;21.57;83.74;100740.47;6039770;23;20033;-71
2022/08/04 04:34:58;;;;;;;5.50;5.30;;;;;;;21.18;83.06;100678.44;6022217;23;20038;-71
2022/08/04 04:37:49;;;;;;;6.00;5.70;;;;;;;21.85;81.88;100745.75;6049442;23;20030;-71
2022/08/04 04:40:32;;;;;;;6.13;5.82;;;;;;;22.25;79.28;100737.31;6031037;23;20028;-71
2022/08/04 04:43:12;;;;;;;5.50;5.30;;;;;;;22.40;78.75;100734.06;6026887;23;20080;-71
2022/08/04 04:46:07;;;;;;;5.97;5.68;;;;;;;22.39;77.02;100662.84;6047735;23;20030;-71
2022/08/04 04:48:40;;;;;;;6.30;6.00;;;;;;;23.45;75.06;100722.22;6022455;23;20045;-71
2022/08/04 04:51:17;;;;;;;6.53;6.22;;;;;;;23.98;72.48;100722.00;6058757;23;20105;-71
2022/08/04 04:54:03;;;;;;;5.60;5.40;;;;;;;24.38;70.21;100707.72;6041040;23;20026;-72
2022/08/04 04:56:46;;;;;;;5.88;5.57;;;;;;;24.63;68.70;100721.94;6054871;23;20022;-71
2022/08/04 04:59:20;;;;;;;6.63;6.22;;;;;;;23.87;68.80;100734.72;6043962;23;20030;-71
2022/08/04 05:02:06;;;;;;;;;;;;;;;23.98;70.64;100751.50;6054478;23;20033;-71
2022/08/04 05:04:54;;;;;;;5.78;5.47;;;;;;;23.37;70.15;100587.44;6056448;23;19917;-70
2022/08/04 05:07:33;;;;;;;5.60;5.40;;;;;;;24.83;67.74;100737.66;6024285;23;20035;-70
2022/08/04 05:10:21;;;;;;;6.25;5.95;;;;;;;25.45;66.15;100736.94;6046826;23;20030;-71
2022/08/04 05:12:56;;;;;;;5.78;5.47;;;;;;;26.01;63.73;100726.81;6058757;23;20024;-72
2022/08/04 05:15:46;;;;;;;6.10;5.80;;;;;;;26.17;61.79;100725.03;6036546;23;20019;-71
2022/08/04 05:18:20;;;;;;;6.57;6.28;;;;;;;26.69;60.87;100734.13;6052292;23;20014;-72
2022/08/04 05:20:56;;;;;;;6.35;6.05;;;;;;;26.98;60.03;100735.97;6100228;23;20019;-71
2022/08/04 05:23:26;;;;;;;5.90;5.60;;;;;;;27.44;58.67;100733.91;6115295;23;20411;-70
2022/08/04 05:26:11;;;;;;;5.80;5.50;;;;;;;26.12;56.72;100545.38;6122518;23;20013;-71
2022/08/04 05:28:58;;;;;;;6.20;5.90;;;;;;;26.88;58.01;100733.56;6115621;23;20019;-71
2022/08/04 05:31:29;;;;;;;6.20;5.70;;;;;;;27.38;57.13;100731.97;6092785;23;20014;-72
2022/08/04 05:34:11;;;;;;;5.93;5.63;;;;;;;27.58;55.96;100744.81;6100973;23;20036;-70
2022/08/04 05:36:51;;;;;;;6.00;5.70;;;;;;;27.63;56.01;100713.56;6106716;23;20403;-70
2022/08/04 05:39:28;;;;;;;6.00;5.70;;;;;;;27.71;54.72;100752.22;6076130;23;20048;-70
2022/08/04 05:42:01;;;;;;;6.95;6.40;;;;;;;27.84;54.62;100739.72;6100723;23;20025;-70
2022/08/04 05:44:32;;;;;;;5.90;5.55;;;;;;;27.53;56.74;100764.25;6082878;23;20026;-70
2022/08/04 05:47:01;;;;;;;6.28;5.93;;;;;;;27.69;55.19;100760.50;6089175;23;20032;-71
2022/08/04 05:49:28;;;;;;;6.22;5.93;;;;;;;27.67;55.82;100742.84;6109869;23;20025;-71
2022/08/04 05:51:59;;;;;;;5.88;5.57;;;;;;;27.89;55.25;100752.66;6112216;23;20048;-71
2022/08/04 05:54:27;;;;;;;6.20;5.90;;;;;;;27.74;55.44;100725.69;6085013;23;20029;-71
2022/08/04 05:56:56;;;;;;;6.20;5.90;;;;;;;27.42;54.71;100714.41;6090823;23;20036;-71
2022/08/04 05:59:26;;;;;;;5.85;5.55;;;;;;;27.92;53.72;100735.22;6078227;23;20025;-71
2022/08/04 06:01:55;;;;;;;6.50;5.95;;;;;;;27.78;54.27;100723.44;6107038;23;20028;-71
2022/08/04 06:04:37;;;;;;;6.20;5.80;;;;;;;28.15;54.62;100752.06;6073753;23;20088;-71
2022/08/04 06:07:04;;;;;;;6.93;6.63;;;;;;;28.00;53.14;100702.72;6082734;23;20025;-70
2022/08/04 06:09:31;;;;;;;5.80;5.50;;;;;;;28.13;53.00;100681.25;6079903;23;20021;-71
2022/08/04 06:12:06;;;;;;;7.65;7.25;;;;;;;28.12;52.63;100717.34;6080862;23;20570;-70
2022/08/04 06:14:41;;;;;;;7.05;6.55;;;;;;;27.52;54.56;100746.41;6100495;23;20024;-71
2022/08/04 06:17:10;;;;;;;7.03;6.72;;;;;;;27.13;56.75;100768.31;6081536;23;20623;-71
2022/08/04 06:19:58;;;;;;;5.97;5.68;;;;;;;26.79;58.47;100777.78;6108712;23;20039;-70
2022/08/04 06:22:49;;;;;;;6.10;5.80;;;;;;;26.67;58.84;100774.69;6107217;23;20017;-70
2022/08/04 06:25:21;;;;;;;6.10;5.80;;;;;;;26.52;59.40;100782.72;6107393;23;20070;-69
2022/08/04 06:27:49;;;;;;;6.20;5.90;;;;;;;26.79;58.76;100788.53;6081564;23;20017;-71
2022/08/04 06:30:18;;;;;;;6.38;6.07;;;;;;;26.86;58.77;100763.41;6078980;23;20026;-70
2022/08/04 06:32:47;;;;;;;6.00;5.70;;;;;;;26.86;58.22;100723.00;6080730;23;20377;-71
2022/08/04 06:35:19;;;;;;;7.38;6.97;;;;;;;27.00;57.62;100742.00;6087934;23;20102;-70
2022/08/04 06:37:47;;;;;;;6.07;5.78;;;;;;;26.84;56.99;100732.25;6082239;23;20025;-71
2022/08/04 06:40:19;;;;;;;7.30;6.90;;;;;;;26.63;57.29;100763.47;6110614;23;20045;-70
2022/08/04 06:43:00;;;;;;;6.40;6.05;;;;;;;26.53;57.73;100784.38;6102995;23;20088;-71
2022/08/04 06:45:27;;;;;;;5.68;5.38;;;;;;;25.77;59.18;100717.06;6109584;23;20025;-70
2022/08/04 06:47:58;;;;;;;6.05;5.75;;;;;;;26.01;59.54;100796.75;6106368;23;20022;-71
2022/08/04 06:50:25;;;;;;;5.90;5.60;;;;;;;26.21;59.54;100788.19;6108818;23;21198;-70
2022/08/04 06:53:12;;;;;;;7.35;6.97;;;;;;;26.32;58.64;100785.09;6110542;23;20024;-70
2022/08/04 06:55:44;;;;;;;6.70;6.30;;;;;;;25.95;57.95;100697.97;6108770;23;20200;-73
2022/08/04 06:58:12;;;;;;;7.10;6.78;;;;;;;26.50;58.16;100775.84;6079332;23;20190;-70
2022/08/04 07:00:40;;;;;;;5.90;5.60;;;;;;;26.82;57.21;100769.31;6079047;23;20098;-71
2022/08/04 07:03:07;;;;;;;7.60;7.20;;;;;;;26.79;57.07;100764.31;6097997;23;20509;-69
2022/08/04 07:05:34;;;;;;;6.05;5.75;;;;;;;26.91;56.29;100775.47;6085171;23;20332;-70
2022/08/04 07:08:02;;;;;;;6.60;6.30;;;;;;;26.42;55.91;100704.94;6090509;23;20014;-71
2022/08/04 07:10:29;;;;;;;6.10;5.80;;;;;;;26.98;56.48;100777.22;6113126;23;20013;-70
2022/08/04 07:12:58;;;;;;;5.95;5.65;;;;;;;27.11;56.07;100781.13;6082176;23;20036;-70
2022/08/04 07:15:25;;;;;;;5.90;5.60;;;;;;;27.31;56.21;100781.41;6114284;23;20009;-70
2022/08/04 07:17:53;;;;;;;6.03;5.72;;;;;;;27.55;54.14;100777.56;6082104;23;20107;-70
2022/08/04 07:20:21;;;;;;;6.10;5.80;;;;;;;27.36;54.20;100720.56;6110752;23;20020;-70
2022/08/04 07:23:04;;;;;;;6.22;5.93;;;;;;;27.61;54.65;100771.41;6084966;23;20089;-73
2022/08/04 07:25:32;;;;;;;6.30;5.57;;;;;;;27.75;53.36;100767.81;6079628;23;20018;-70
2022/08/04 07:28:21;;;;;;;6.45;6.07;;;;;;;27.35;52.92;100729.66;6111117;23;20632;-71
2022/08/04 07:30:48;;;;;;;6.00;5.70;;;;;;;27.69;52.93;100771.28;6095750;23;20092;-71
2022/08/04 07:33:18;;;;;;;6.50;6.20;;;;;;;28.04;51.96;100763.34;6077732;23;20359;-70
2022/08/04 07:35:47;;;;;;;6.00;5.70;;;;;;;28.01;51.63;100744.88;6095341;23;20025;-71
2022/08/04 07:38:33;;;;;;;5.80;5.50;;;;;;;27.82;51.49;100709.41;6064706;23;20497;-71
2022/08/04 07:41:11;;;;;;;7.30;6.80;;;;;;;28.38;49.65;100762.59;6084430;23;20583;-71
2022/08/04 07:43:58;;;;;;;6.05;5.75;;;;;;;28.16;50.00;100710.53;6066066;23;20017;-72
2022/08/04 07:46:25;;;;;;;6.10;5.80;;;;;;;28.45;49.94;100763.50;6107787;23;20078;-71
2022/08/04 07:48:58;;;;;;;6.18;5.88;;;;;;;28.53;48.89;100746.38;6104213;23;20032;-72
2022/08/04 07:51:24;;;;;;;5.93;5.50;;;;;;;28.93;49.04;100762.00;6080935;23;20025;-72
2022/08/04 07:53:51;;;;;;;5.88;5.57;;;;;;;28.73;48.61;100733.00;6096453;23;20013;-70
2022/08/04 07:56:22;;;;;;;5.72;5.43;;;;;;;28.38;48.37;100640.31;6114548;23;20034;-71
2022/08/04 07:58:48;;;;;;;6.20;5.90;;;;;;;28.75;48.20;100651.78;6114523;23;20665;-72
2022/08/04 08:01:17;;;;;;;6.32;6.00;;;;;;;29.04;47.69;100716.31;6110631;23;20193;-71
2022/08/04 08:03:44;;;;;;;5.60;5.30;;;;;;;29.44;47.21;100767.84;6094889;23;20017;-71
2022/08/04 08:06:11;;;;;;;7.13;6.72;;;;;;;29.50;47.45;100765.38;6094895;23;20513;-71
2022/08/04 08:08:59;;;;;;;5.80;5.50;;;;;;;29.71;47.12;100758.97;6115005;23;20061;-71
2022/08/04 08:11:41;;;;;;;5.90;5.60;;;;;;;29.60;46.88;100763.94;6115062;23;20009;-72
2022/08/04 08:14:29;;;;;;;6.10;5.80;;;;;;;29.85;47.18;100762.56;6124963;23;20079;-71
2022/08/04 08:16:56;;;;;;;6.00;5.70;;;;;;;29.51;46.94;100665.13;6125523;23;20636;-73
2022/08/04 08:19:23;;;;;;;6.00;5.70;;;;;;;30.07;45.40;100733.44;6084821;23;20069;-71
2022/08/04 08:21:50;;;;;;;6.30;6.00;;;;;;;30.30;45.46;100754.69;6063413;23;20089;-73
2022/08/04 08:24:28;;;;;;;5.75;5.45;;;;;;;30.37;44.11;100742.88;6112710;23;20165;-72
2022/08/04 08:26:55;;;;;;;6.28;5.97;;;;;;;30.33;44.99;100757.88;6088978;23;20048;-73
2022/08/04 08:29:23;;;;;;;6.40;6.10;;;;;;;29.93;45.02;100694.72;6110020;23;20037;-75
2022/08/04 08:31:50;;;;;;;5.80;5.50;;;;;;;29.82;45.92;100661.00;6084408;23;20036;-74
2022/08/04 08:34:27;;;;;;;6.30;6.00;;;;;;;30.36;44.92;100707.88;6110313;23;20030;-75
2022/08/04 08:37:18;;;;;;;6.18;5.82;;;;;;;30.85;44.12;100741.72;6080415;23;20101;-75
2022/08/04 08:39:51;;;;;;;6.10;5.80;;;;;;;31.18;42.86;100727.25;6113896;23;20035;-74
2022/08/04 08:42:54;;;;;;;6.47;6.13;;;;;;;31.70;42.41;100735.34;6104444;23;20024;-74
2022/08/04 08:45:39;;;;;;;6.50;6.10;;;;;;;31.85;42.20;100738.56;6111718;23;20021;-74
2022/08/04 08:48:19;;;;;;;7.63;7.22;;;;;;;32.03;40.94;100735.09;6112525;23;20067;-73
2022/08/04 08:51:15;;;;;;;5.90;5.60;;;;;;;31.25;41.05;100587.03;6112510;23;20021;-73
2022/08/04 08:53:47;;;;;;;6.40;5.95;;;;;;;32.62;40.44;100741.09;6096974;23;20021;-73
2022/08/04 08:56:17;;;;;;;7.38;7.03;;;;;;;32.95;39.92;100735.28;6079304;23;20026;-74
2022/08/04 08:59:16;;;;;;;5.88;5.57;;;;;;;33.14;39.52;100738.03;6106309;23;20021;-74
2022/08/04 09:02:10;;;;;;;6.30;6.00;;;;;;;32.96;38.19;100747.00;6040968;23;20037;-74
2022/08/04 09:05:20;;;;;;;6.10;5.80;;;;;;;33.05;39.37;100755.66;6115043;23;20014;-75
2022/08/04 09:08:06;;;;;;;6.20;5.90;;;;;;;33.45;38.69;100692.59;6100798;23;20420;-75
2022/08/04 09:10:56;;;;;;;6.32;6.03;;;;;;;33.92;37.47;100747.19;6081809;23;20266;-74
2022/08/04 09:13:44;;;;;;;6.07;5.68;;;;;;;33.30;39.09;100753.72;6057608;23;20017;-74
2022/08/04 09:16:29;;;;;;;7.45;7.03;;;;;;;34.30;37.85;100751.41;6105895;23;20290;-75
2022/08/04 09:19:08;;;;;;;6.00;5.70;;;;;;;34.01;36.92;100707.66;6097971;23;20029;-75
2022/08/04 09:22:02;;;;;;;5.93;5.63;;;;;;;34.01;36.65;100732.16;6021562;23;20019;-73
2022/08/04 09:24:58;;;;;;;6.35;5.95;;;;;;;34.45;36.52;100740.03;6051380;23;20057;-74
2022/08/04 09:27:46;;;;;;;6.13;5.82;;;;;;;34.26;36.16;100774.72;6013452;23;20003;-73
2022/08/04 09:30:17;;;;;;;7.00;6.68;;;;;;;34.22;36.06;100779.00;6052950;23;20036;-75
2022/08/04 09:33:02;;;;;;;5.88;5.57;;;;;;;33.75;36.05;100747.03;6030849;23;20429;-74
2022/08/04 09:35:53;;;;;;;6.05;5.75;;;;;;;34.11;35.77;100786.88;6057951;23;20171;-72
2022/08/04 09:38:29;;;;;;;5.70;5.40;;;;;;;34.00;37.08;100786.84;6016886;23;20019;-74
2022/08/04 09:41:15;;;;;;;6.32;5.93;;;;;;;34.01;36.90;100789.34;6046017;23;20030;-75
2022/08/04 09:44:45;;;;;;;6.47;6.18;;;;;;;34.14;35.86;100726.53;6024741;23;20027;-74
2022/08/04 09:47:44;;;;;;;5.95;5.65;;;;;;;34.84;35.69;100787.56;6047042;23;20641;-74
2022/08/04 09:50:25;;;;;;;6.72;6.43;;;;;;;34.77;35.46;100795.03;6022821;23;20180;-76
2022/08/04 09:53:04;;;;;;;5.88;5.57;;;;;;;35.13;34.24;100796.63;6029933;23;20013;-74
2022/08/04 09:55:41;;;;;;;6.07;5.78;;;;;;;34.64;35.26;100806.16;6054964;23;20017;-75
2022/08/04 09:58:38;;;;;;;5.70;5.40;;;;;;;35.03;35.41;100803.78;6038144;23;20029;-74
2022/08/04 10:01:10;;;;;;;7.03;6.72;;;;;;;35.07;35.34;100802.22;6048701;23;20037;-71
2022/08/04 10:03:40;;;;;;;6.10;5.80;;;;;;;35.47;34.61;100801.44;6037761;23;20018;-75
2022/08/04 10:06:40;;;;;;;6.72;6.43;;;;;;;34.82;33.32;100720.69;6029257;23;20041;-75
2022/08/04 10:09:35;;;;;;;6.82;6.53;;;;;;;35.22;33.10;100824.38;6042788;23;20018;-74
2022/08/04 10:12:53;;;;;;;6.63;6.32;;;;;;;35.24;32.74;100824.16;6024403;23;20035;-74
2022/08/04 10:15:30;;;;;;;5.80;5.50;;;;;;;35.41;31.66;100805.13;5937507;23;20077;-75
2022/08/04 10:18:09;;;;;;;5.80;5.50;;;;;;;35.14;32.37;100773.75;6014922;23;20368;-72
2022/08/04 10:20:47;;;;;;;5.95;5.65;;;;;;;35.63;33.06;100818.94;6079070;23;20026;-74
2022/08/04 10:23:53;;;;;;;5.93;5.63;;;;;;;34.87;31.64;100792.53;6102777;23;20014;-74
2022/08/04 10:26:28;;;;;;;5.50;5.30;;;;;;;34.91;32.81;100840.06;6102416;23;20411;-73
2022/08/04 10:29:08;;;;;;;5.70;5.40;;;;;;;34.86;32.40;100836.41;6065312;23;20025;-73
2022/08/04 10:31:53;;;;;;;5.90;5.60;;;;;;;34.85;32.60;100808.31;6106218;23;20501;-74
2022/08/04 10:34:24;;;;;;;5.50;5.30;;;;;;;34.70;33.12;100792.44;6090545;23;20025;-72
2022/08/04 10:37:05;;;;;;;6.10;5.80;;;;;;;34.64;32.69;100808.88;6104875;23;20025;-73
2022/08/04 10:39:41;;;;;;;5.40;5.20;;;;;;;34.39;33.49;100804.50;6095375;23;20026;-72
2022/08/04 10:42:29;;;;;;;6.85;6.55;;;;;;;34.73;33.47;100834.75;6101786;23;20526;-73
2022/08/04 10:45:05;;;;;;;5.43;5.22;;;;;;;35.04;33.83;100857.25;6102009;23;20025;-74
2022/08/04 10:47:36;;;;;;;5.80;5.40;;;;;;;35.07;33.19;100832.25;6111820;23;20013;-74
2022/08/04 10:50:05;;;;;;;6.65;6.35;;;;;;;35.18;32.67;100872.31;6079980;23;20048;-73
2022/08/04 10:52:43;;;;;;;5.82;5.53;;;;;;;35.13;32.16;100814.91;6122621;23;20609;-73
2022/08/04 10:55:30;;;;;;;6.60;6.30;;;;;;;35.46;31.41;100806.06;6077375;23;20022;-73
2022/08/04 10:58:26;;;;;;;5.80;5.50;;;;;;;35.34;31.86;100878.94;6116922;23;20029;-73
2022/08/04 11:01:21;;;;;;;6.68;6.38;;;;;;;34.80;32.69;100890.00;6086752;23;20034;-73
2022/08/04 11:04:20;;;;;;;7.15;6.75;;;;;;;34.99;32.37;100881.72;6094174;23;20017;-73
2022/08/04 11:06:54;;;;;;;6.90;6.20;;;;;;;34.19;32.65;100700.50;6109323;23;20029;-74
2022/08/04 11:09:21;;;;;;;6.00;5.70;;;;;;;35.06;32.70;100890.56;6080091;23;20018;-73
2022/08/04 11:12:02;;;;;;;6.10;5.80;;;;;;;34.40;33.18;100784.38;6110998;23;20525;-74
2022/08/04 11:14:50;;;;;;;5.90;5.60;;;;;;;34.66;33.53;100858.56;6121283;23;20024;-73
2022/08/04 11:17:27;;;;;;;6.13;5.82;;;;;;;34.50;34.24;100870.97;6104854;23;20032;-73
2022/08/04 11:20:00;;;;;;;5.70;5.40;;;;;;;34.93;33.89;100903.38;6116579;23;20084;-73
2022/08/04 11:22:57;;;;;;;7.10;6.80;;;;;;;34.67;32.86;100896.50;6104430;23;20404;-73
2022/08/04 11:25:35;;;;;;;6.15;5.60;;;;;;;34.56;34.08;100865.41;6106475;23;20013;-72
2022/08/04 11:28:09;;;;;;;6.18;5.82;;;;;;;35.08;34.19;100905.66;6108801;23;20036;-73
2022/08/04 11:30:45;;;;;;;5.80;5.35;;;;;;;35.19;34.31;100867.72;6077072;23;20014;-72
2022/08/04 11:33:31;;;;;;;6.57;6.28;;;;;;;35.80;34.14;100899.00;6105596;23;20035;-74
2022/08/04 11:36:07;;;;;;;5.78;5.47;;;;;;;35.85;33.31;100898.31;6086720;23;20427;-76
2022/08/04 11:38:47;;;;;;;5.80;5.50;;;;;;;35.15;34.00;100810.03;6101828;23;20017;-77
2022/08/04 11:41:22;;;;;;;5.78;5.47;;;;;;;35.13;33.47;100886.66;6094797;23;20635;-75
2022/08/04 11:43:57;;;;;;;5.90;5.60;;;;;;;34.56;34.22;100884.50;6044125;23;20630;-76
2022/08/04 11:46:39;;;;;;;5.88;5.57;;;;;;;34.40;34.78;100949.72;6105749;23;20043;-75
2022/08/04 11:49:10;;;;;;;6.85;6.55;;;;;;;33.80;36.26;100942.34;6083389;23;20018;-74
2022/08/04 11:51:38;;;;;;;5.80;5.50;;;;;;;32.99;37.90;100950.44;6106662;23;20026;-75
2022/08/04 11:54:07;;;;;;;6.95;6.60;;;;;;;32.49;38.56;100925.94;6093268;23;20025;-74
2022/08/04 11:56:36;;;;;;;5.95;5.65;;;;;;;32.47;38.53;100939.72;6112138;23;20306;-73
2022/08/04 11:59:06;;;;;;;6.63;6.32;;;;;;;32.20;39.75;100949.94;6085468;23;20619;-75
2022/08/04 12:02:05;;;;;;;5.50;5.30;;;;;;;32.15;40.84;100950.56;6085797;23;20018;-75
2022/08/04 12:04:54;;;;;;;5.97;5.68;;;;;;;31.87;40.74;100907.44;6042145;23;20024;-73
2022/08/04 12:07:48;;;;;;;6.10;5.80;;;;;;;32.25;40.50;100950.09;6079936;23;20657;-76
2022/08/04 12:10:46;;;;;;;6.60;6.30;;;;;;;32.93;39.30;100935.84;6088901;23;20100;-75
2022/08/04 12:13:26;;;;;;;6.82;6.53;;;;;;;33.53;36.73;100853.66;6074880;23;20024;-73
2022/08/04 12:16:15;;;;;;;6.00;5.70;;;;;;;34.37;36.15;100904.72;6094653;23;20018;-75
2022/08/04 12:18:51;;;;;;;6.45;6.15;;;;;;;34.60;35.72;100927.63;6096715;18;20025;-73
2022/08/04 12:21:44;;;;;;;6.72;6.22;;;;;;;34.35;35.63;100915.03;6045763;23;20424;-74
2022/08/04 12:24:43;;;;;;;6.30;6.00;;;;;;;34.03;36.07;100928.84;6038631;23;20605;-73
2022/08/04 12:27:15;;;;;;;6.95;6.65;;;;;;;33.33;36.71;100891.16;6048568;23;20265;-73
2022/08/04 12:29:45;;;;;;;5.93;5.63;;;;;;;33.34;36.52;100898.28;6066865;23;20028;-74